createdAt,value
2018-06-21T07:10:52.770Z,67.60
2018-06-21T07:13:20.854Z,64.30
2018-06-21T07:15:50.122Z,66.60
2018-06-21T07:18:20.834Z,61.80
2018-06-21T07:20:48.384Z,63.80
2018-06-21T07:25:43.310Z,61.30
2018-06-21T07:30:41.175Z,62.80
2018-06-21T07:33:08.686Z,64.50
2018-06-21T07:35:36.172Z,61.50
2018-06-21T07:38:03.705Z,63.90
2018-06-21T07:40:31.195Z,61.40
2018-06-21T07:42:58.739Z,60.60
2018-06-21T07:45:28.260Z,59.30
2018-06-21T07:47:55.723Z,58.30
2018-06-21T07:50:23.242Z,59.50
2018-06-21T07:52:50.725Z,59.80
2018-06-21T07:55:18.247Z,59.30
2018-06-21T07:57:45.726Z,58.30
2018-06-21T08:00:14.962Z,58.80
2018-06-21T08:02:42.423Z,58.30
2018-06-21T08:05:09.941Z,58.00
2018-06-21T08:07:37.578Z,58.90
2018-06-21T08:10:05.084Z,59.00
2018-06-21T08:12:32.623Z,56.60
2018-06-21T08:15:00.119Z,56.90
2018-06-21T08:17:27.650Z,57.90
2018-06-21T08:19:55.189Z,60.90
2018-06-21T08:22:22.678Z,59.60
2018-06-21T08:24:50.198Z,60.40
2018-06-21T08:27:17.690Z,61.00
2018-06-21T08:29:45.181Z,57.70
2018-06-21T08:32:12.697Z,59.10
2018-06-21T08:34:40.225Z,61.00
2018-06-21T08:37:07.742Z,59.20
2018-06-21T08:39:35.334Z,58.40
2018-06-21T08:42:02.865Z,58.90
2018-06-21T08:44:30.374Z,58.30
2018-06-21T08:46:57.874Z,56.30
2018-06-21T08:49:25.390Z,54.60
2018-06-21T08:51:52.883Z,54.10
2018-06-21T08:54:20.418Z,53.00
2018-06-21T08:56:47.942Z,52.00
2018-06-21T08:59:15.915Z,52.60
2018-06-21T09:01:43.470Z,54.30
2018-06-21T09:04:10.960Z,55.00
2018-06-21T09:06:38.448Z,52.70
2018-06-21T09:09:07.599Z,52.80
2018-06-21T09:11:35.132Z,52.80
2018-06-21T09:14:02.666Z,53.90
2018-06-21T09:16:30.257Z,55.40
2018-06-21T09:18:58.615Z,55.00
2018-06-21T09:21:27.344Z,54.80
2018-06-21T09:23:54.999Z,55.30
2018-06-21T09:26:22.479Z,53.70
2018-06-21T09:28:50.006Z,52.00
2018-06-21T09:31:18.214Z,52.00
2018-06-21T09:33:45.746Z,52.90
2018-06-21T09:36:13.566Z,52.00
2018-06-21T09:38:46.705Z,52.90
2018-06-21T09:41:19.887Z,52.80
2018-06-21T09:44:03.829Z,52.10
2018-06-21T09:46:33.870Z,53.90
2018-06-21T09:48:53.848Z,54.40
2018-06-21T09:51:21.462Z,56.00
2018-06-21T09:56:16.574Z,56.10
2018-06-21T09:58:44.347Z,58.40
2018-06-21T10:01:11.866Z,52.90
2018-06-21T10:03:39.362Z,51.70
2018-06-21T10:06:06.878Z,52.00
2018-06-21T10:08:34.469Z,51.80
2018-06-21T10:11:01.975Z,51.50
2018-06-21T10:13:29.463Z,51.00
2018-06-21T10:15:57.055Z,52.30
2018-06-21T10:18:24.594Z,51.30
2018-06-21T10:20:52.099Z,54.20
2018-06-21T10:23:19.615Z,52.40
2018-06-21T10:25:47.133Z,51.60
2018-06-21T10:28:17.205Z,51.50
2018-06-21T10:30:44.707Z,51.10
2018-06-21T10:33:12.267Z,48.70
2018-06-21T10:35:39.770Z,50.70
2018-06-21T10:38:07.259Z,50.40
2018-06-21T10:43:02.186Z,51.40
2018-06-21T10:45:29.694Z,50.00
2018-06-21T10:47:57.174Z,52.00
2018-06-21T10:50:24.667Z,52.30
2018-06-21T10:52:52.134Z,53.40
2018-06-21T10:55:19.672Z,50.80
2018-06-21T10:57:47.142Z,53.10
2018-06-21T11:00:14.685Z,53.10
2018-06-21T11:02:42.202Z,53.20
2018-06-21T11:05:09.710Z,51.70
2018-06-21T11:07:37.360Z,51.90
2018-06-21T11:10:04.944Z,53.40
2018-06-21T11:12:32.459Z,53.40
2018-06-21T11:14:59.988Z,53.60
2018-06-21T11:17:27.490Z,52.60
2018-06-21T11:19:55.971Z,53.20
2018-06-21T11:24:51.344Z,55.50
2018-06-21T11:27:18.815Z,52.40
2018-06-21T11:29:46.339Z,53.40
2018-06-21T11:32:13.883Z,54.60
2018-06-21T11:34:41.430Z,56.00
2018-06-21T11:37:08.929Z,50.70
2018-06-21T11:39:36.490Z,52.00
2018-06-21T11:42:03.992Z,50.80
2018-06-21T11:44:31.502Z,50.60
2018-06-21T11:46:59.075Z,49.30
2018-06-21T11:49:26.559Z,51.60
2018-06-21T11:51:54.054Z,50.40
2018-06-21T11:54:21.605Z,49.90
2018-06-21T11:56:49.138Z,49.90
2018-06-21T11:59:16.738Z,48.30
2018-06-21T12:01:44.357Z,46.40
2018-06-21T12:04:11.830Z,48.00
2018-06-21T12:06:39.321Z,47.50
2018-06-21T12:09:08.534Z,48.00
2018-06-21T12:11:36.020Z,48.40
2018-06-21T12:14:03.637Z,48.30
2018-06-21T12:16:31.186Z,46.30
2018-06-21T12:18:58.738Z,47.50
2018-06-21T12:23:53.687Z,46.70
2018-06-21T12:26:21.214Z,46.10
2018-06-21T12:28:48.717Z,46.20
2018-06-21T12:31:16.214Z,47.40
2018-06-21T12:33:43.726Z,47.40
2018-06-21T12:36:11.223Z,47.00
2018-06-21T12:38:38.714Z,48.70
2018-06-21T12:41:06.274Z,44.30
2018-06-21T12:43:33.803Z,45.70
2018-06-21T12:46:01.301Z,46.90
2018-06-21T12:48:28.825Z,48.40
2018-06-21T12:50:56.336Z,49.90
2018-06-21T12:53:23.907Z,48.60
2018-06-21T12:55:52.118Z,47.70
2018-06-21T12:58:20.294Z,48.30
2018-06-21T13:05:42.634Z,47.50
2018-06-21T13:08:10.299Z,48.40
2018-06-21T13:12:22.558Z,49.60
2018-06-21T13:14:51.068Z,47.10
2018-06-21T13:17:19.062Z,47.10
2018-06-21T13:19:46.791Z,47.60
2018-06-21T13:22:14.290Z,47.00
2018-06-21T13:24:41.922Z,48.10
2018-06-21T13:27:09.459Z,46.60
2018-06-21T13:29:37.918Z,47.50
2018-06-21T13:32:05.410Z,47.00
2018-06-21T13:34:33.023Z,49.70
2018-06-21T13:37:01.402Z,50.60
2018-06-21T13:39:28.955Z,47.40
2018-06-21T13:41:56.449Z,45.20
2018-06-21T13:44:23.958Z,44.80
2018-06-21T13:46:51.592Z,44.80
2018-06-21T13:49:19.122Z,46.30
2018-06-21T13:51:46.606Z,45.60
2018-06-21T13:54:14.119Z,47.40
2018-06-21T13:56:41.649Z,48.00
2018-06-21T13:59:09.185Z,48.60
2018-06-21T14:01:36.734Z,49.40
2018-06-21T14:04:04.249Z,49.90
2018-06-21T14:06:31.777Z,52.00
2018-06-21T14:08:59.297Z,54.30
2018-06-21T14:11:26.859Z,55.30
2018-06-21T14:13:56.563Z,56.10
2018-06-21T14:16:24.244Z,56.70
2018-06-21T14:18:51.801Z,57.40
2018-06-21T14:21:19.347Z,59.20
2018-06-21T14:23:47.757Z,60.20
2018-06-21T14:26:15.974Z,59.00
2018-06-21T14:28:43.503Z,60.00
2018-06-21T14:31:10.999Z,61.50
2018-06-21T14:33:38.531Z,58.60
2018-06-21T14:36:06.015Z,58.50
2018-06-21T14:41:14.647Z,59.60
2018-06-21T14:43:43.280Z,58.10
2018-06-21T14:46:11.546Z,60.20
2018-06-21T14:48:39.061Z,58.30
2018-06-21T14:51:06.603Z,60.60
2018-06-21T14:53:34.150Z,58.50
2018-06-21T14:56:01.716Z,58.70
2018-06-21T14:58:29.203Z,59.40
2018-06-21T15:00:57.902Z,59.90
2018-06-21T15:03:25.407Z,61.20
2018-06-21T15:05:52.939Z,60.00
2018-06-21T15:08:20.514Z,59.70
2018-06-21T15:10:48.040Z,62.70
2018-06-21T15:13:15.559Z,60.30
2018-06-21T15:15:43.045Z,61.50
2018-06-21T15:20:38.098Z,63.30
2018-06-21T15:23:05.904Z,61.60
2018-06-21T15:25:33.432Z,59.70
2018-06-21T15:28:00.975Z,60.90
2018-06-21T15:30:28.554Z,61.60
2018-06-21T15:32:56.086Z,61.20
2018-06-21T15:35:23.663Z,59.60
2018-06-21T15:37:51.193Z,61.40
2018-06-21T15:42:46.255Z,60.10
2018-06-21T15:45:14.298Z,61.20
2018-06-21T15:47:41.778Z,60.00
2018-06-21T15:50:09.316Z,61.80
2018-06-21T15:52:36.910Z,62.10
2018-06-21T15:55:04.480Z,62.60
2018-06-21T15:57:32.071Z,63.30
2018-06-21T15:59:59.572Z,63.60
2018-06-21T16:02:27.154Z,63.60
2018-06-21T16:04:54.735Z,64.50
2018-06-21T16:07:22.330Z,62.90
2018-06-21T16:09:49.839Z,63.90
2018-06-21T16:12:17.380Z,64.30
2018-06-21T16:14:44.946Z,64.00
2018-06-21T16:17:12.473Z,63.80
2018-06-21T16:19:39.995Z,62.00
2018-06-21T16:24:34.998Z,62.70
2018-06-21T16:27:02.559Z,63.90
2018-06-21T16:29:30.094Z,65.10
2018-06-21T16:31:57.633Z,65.60
2018-06-21T16:34:25.147Z,67.60
2018-06-21T16:36:52.631Z,67.10
2018-06-21T16:39:20.203Z,68.40
2018-06-21T16:41:47.722Z,68.40
2018-06-21T16:44:15.255Z,69.70
2018-06-21T16:46:42.789Z,69.20
2018-06-21T16:49:10.370Z,69.70
2018-06-21T16:51:37.904Z,69.60
2018-06-21T16:54:05.532Z,70.10
2018-06-21T16:56:33.173Z,69.50
2018-06-21T16:59:00.739Z,70.60
2018-06-21T17:01:28.322Z,70.50
2018-06-21T17:03:55.881Z,67.30
2018-06-21T17:06:23.474Z,65.20
2018-06-21T17:08:53.782Z,63.90
2018-06-21T17:11:22.113Z,61.30
2018-06-21T17:13:49.666Z,60.50
2018-06-21T17:16:17.184Z,59.90
2018-06-21T17:18:44.713Z,60.40
2018-06-21T17:21:12.297Z,58.30
2018-06-21T17:23:39.859Z,57.90
2018-06-21T17:26:07.495Z,55.80
2018-06-21T17:28:35.009Z,55.00
2018-06-21T17:31:02.565Z,56.20
2018-06-21T17:33:30.159Z,55.10
2018-06-21T17:40:52.704Z,54.30
2018-06-21T17:43:20.294Z,53.20
2018-06-21T17:50:42.921Z,51.40
2018-06-21T17:53:10.806Z,50.50
2018-06-21T17:55:38.383Z,50.50
2018-06-21T17:58:06.072Z,50.30
2018-06-21T18:00:33.579Z,51.30
2018-06-21T18:03:01.121Z,50.60
2018-06-21T18:05:28.668Z,48.90
2018-06-21T18:07:56.224Z,50.80
2018-06-21T18:10:23.795Z,48.40
2018-06-21T18:12:51.345Z,48.60
2018-06-21T18:15:18.914Z,48.00
2018-06-21T18:17:46.491Z,46.40
2018-06-21T18:20:24.357Z,45.90
2018-06-21T18:22:51.943Z,46.90
2018-06-21T18:25:19.478Z,47.10
2018-06-21T18:27:47.089Z,46.60
2018-06-21T18:30:14.634Z,45.60
2018-06-21T18:32:42.215Z,45.20
2018-06-21T18:35:09.776Z,45.30
2018-06-21T18:37:37.362Z,45.20
2018-06-21T18:42:32.569Z,43.20
2018-06-21T18:45:00.164Z,43.60
2018-06-21T18:47:27.762Z,43.10
2018-06-21T18:49:55.321Z,43.70
2018-06-21T18:52:22.881Z,43.50
2018-06-21T18:54:50.406Z,43.20
2018-06-21T18:57:17.975Z,43.50
2018-06-21T18:59:45.552Z,42.60
2018-06-21T19:02:13.126Z,42.90
2018-06-21T19:04:40.634Z,43.10
2018-06-21T19:07:13.822Z,42.80
2018-06-21T19:09:47.166Z,42.80
2018-06-21T19:12:14.877Z,42.50
2018-06-21T19:14:42.459Z,42.80
2018-06-21T19:17:10.050Z,43.30
2018-06-21T19:19:38.368Z,43.30
2018-06-21T19:22:05.963Z,42.70
2018-06-21T19:24:33.545Z,42.80
2018-06-21T19:27:01.199Z,44.40
2018-06-21T19:29:28.797Z,44.60
2018-06-21T19:31:56.347Z,43.20
2018-06-21T19:34:23.862Z,44.30
2018-06-21T19:36:51.447Z,44.50
2018-06-21T19:39:18.995Z,42.60
2018-06-21T19:41:46.590Z,43.20
2018-06-21T19:44:14.112Z,44.00
2018-06-21T19:46:41.663Z,44.10
2018-06-21T19:49:09.207Z,43.50
2018-06-21T19:51:36.769Z,43.90
2018-06-21T19:54:04.393Z,43.60
2018-06-21T19:56:31.943Z,44.50
2018-06-21T19:58:59.531Z,43.90
2018-06-21T20:01:27.138Z,44.20
2018-06-21T20:03:54.762Z,45.30
2018-06-21T20:06:22.428Z,44.80
2018-06-21T20:08:50.108Z,45.10
2018-06-21T20:11:23.198Z,46.00
2018-06-21T20:13:51.679Z,46.00
2018-06-21T20:16:20.131Z,44.70
2018-06-21T20:18:47.931Z,45.30
2018-06-21T20:21:16.606Z,45.50
2018-06-21T20:23:46.090Z,45.60
2018-06-21T20:26:14.083Z,46.60
2018-06-21T20:28:42.019Z,46.40
2018-06-21T20:33:38.873Z,46.00
2018-06-21T20:38:33.967Z,44.90
2018-06-21T20:41:01.499Z,46.10
2018-06-21T20:43:29.200Z,46.00
2018-06-21T20:45:56.780Z,45.10
2018-06-21T20:48:24.349Z,46.30
2018-06-21T20:50:51.866Z,46.80
2018-06-21T20:53:19.437Z,46.60
2018-06-21T20:55:46.989Z,47.00
2018-06-21T20:58:14.545Z,48.40
2018-06-21T21:00:42.142Z,47.90
2018-06-21T21:03:09.892Z,49.40
2018-06-21T21:12:59.710Z,46.90
2018-06-21T21:15:27.247Z,47.50
2018-06-21T21:17:54.790Z,47.90
2018-06-21T21:20:22.316Z,47.10
2018-06-21T21:22:49.879Z,47.10
2018-06-21T21:25:17.390Z,48.20
2018-06-21T21:27:44.901Z,47.50
2018-06-21T21:30:12.379Z,48.40
2018-06-21T21:32:39.875Z,47.90
2018-06-21T21:35:07.390Z,48.10
2018-06-21T21:37:34.983Z,48.40
2018-06-21T21:40:04.565Z,48.30
2018-06-21T21:42:33.234Z,48.10
2018-06-21T21:45:00.706Z,48.60
2018-06-21T21:47:28.225Z,49.30
2018-06-21T21:49:55.884Z,48.30
2018-06-21T21:54:51.074Z,48.50
2018-06-21T21:57:18.771Z,48.80
2018-06-21T21:59:46.677Z,48.70
2018-06-21T22:02:14.600Z,48.70
2018-06-21T22:04:42.310Z,49.40
2018-06-21T22:07:09.791Z,48.20
2018-06-21T22:09:37.325Z,48.00
2018-06-21T22:12:05.016Z,48.20
2018-06-21T22:14:32.514Z,48.80
2018-06-21T22:17:00.060Z,48.70
2018-06-21T22:21:55.059Z,48.90
2018-06-21T22:24:22.608Z,48.50
2018-06-21T22:26:50.110Z,48.80
2018-06-21T22:29:17.623Z,48.30
2018-06-21T22:31:45.142Z,49.10
2018-06-21T22:34:12.631Z,48.40
2018-06-21T22:36:40.286Z,49.10
2018-06-21T22:39:10.058Z,48.50
2018-06-21T22:41:37.843Z,49.90
2018-06-21T22:44:05.394Z,48.90
2018-06-21T22:46:32.867Z,49.10
2018-06-21T22:49:00.344Z,49.50
2018-06-21T22:51:28.686Z,49.50
2018-06-21T22:53:56.207Z,49.40
2018-06-21T22:58:51.633Z,50.10
2018-06-21T23:01:19.211Z,51.00
2018-06-21T23:03:47.038Z,51.00
2018-06-21T23:06:16.359Z,51.60
2018-06-21T23:08:43.893Z,51.20
2018-06-21T23:11:11.431Z,51.70
2018-06-21T23:13:38.970Z,51.90
2018-06-21T23:16:06.625Z,52.60
2018-06-21T23:18:48.251Z,51.90
2018-06-21T23:21:15.794Z,52.20
2018-06-21T23:23:43.295Z,52.20
2018-06-21T23:26:11.431Z,52.40
2018-06-21T23:28:38.918Z,52.10
2018-06-21T23:31:06.505Z,52.30
2018-06-21T23:33:38.656Z,52.80
2018-06-21T23:38:38.620Z,53.50
2018-06-21T23:41:08.205Z,53.80
2018-06-21T23:46:11.724Z,53.40
2018-06-21T23:48:41.850Z,53.70
2018-06-21T23:51:13.547Z,54.00
2018-06-21T23:53:41.090Z,54.60
2018-06-21T23:56:08.597Z,54.20
2018-06-21T23:58:38.013Z,54.30
